ADDS METAR Data INFO
IDs: Format: Raw Decoded Include TAF

Data at: 0341 UTC 20 Feb 2018

KEWK 200256Z AUTO 03012KT 5SM BR OVC012 M03/M04 A2979 RMK AO2 SLP101 T10281044 50001 FZRANO
KEWK 200156Z AUTO 02010KT 10SM OVC014 M02/M05 A2980 RMK AO2 SLP102 T10221050 FZRANO
KEWK 200056Z AUTO 03010KT 10SM OVC014 M02/M06 A2979 RMK AO2 SLP095 T10171056 FZRANO
KEWK 200019Z AUTO 03008KT 10SM OVC014 M02/M06 A2979 RMK AO2 FZRANO
KEWK 192356Z AUTO 02011KT 10SM OVC016 M01/M06 A2979 RMK AO2 SLP093 T10111056 11006 21028 58005 FZRANO
KEWK 192256Z AUTO 36010KT 10SM OVC016 M01/M05 A2981 RMK AO2 SLP094 T10111050 FZRANO
KEWK 192156Z AUTO 35013KT 10SM OVC016 M01/M05 A2980 RMK AO2 SLP091 T10111050 FZRANO
KEWK 192145Z AUTO 35011KT 10SM OVC016 M01/M04 A2979 RMK AO2 FZRANO
KEWK 192056Z AUTO 34009KT 10SM OVC010 M02/M04 A2980 RMK AO2 CIG 008V012 SLP094 T10221039 56004 FZRANO
KEWK 191956Z AUTO 34013KT 6SM BR OVC008 M03/M04 A2980 RMK AO2 SLP095 T10281044 FZRANO
KEWK 191856Z AUTO 34010KT 10SM OVC008 M02/M04 A2980 RMK AO2 SLP094 T10221044 FZRANO
KEWK 191756Z AUTO 34015KT 10SM OVC006 M03/M05 A2982 RMK AO2 SLP101 T10281050 10089 21028 50013 FZRANO
KEWK 191718Z AUTO 33013KT 10SM OVC006 M03/M04 A2983 RMK AO2 FZRANO
KEWK 191656Z AUTO 34012KT 10SM OVC004 M03/M04 A2982 RMK AO2 SLP104 T10281039 FZRANO
KEWK 191556Z AUTO 33015KT 6SM BR OVC004 M02/M03 A2981 RMK AO2 SLP101 T10221033 FZRANO
KEWK 191517Z AUTO 34019KT 7SM OVC004 M02/M03 A2978 RMK AO2 FZRANO
KEWK 191456Z AUTO 34015KT 10SM OVC006 M01/M02 A2978 RMK AO2 SLP087 T10111022 51042 FZRANO
KEWK 191415Z AUTO 33015KT 10SM OVC008 M01/M02 A2975 RMK AO2 CIG 006V011 FZRANO
KEWK 191356Z AUTO 33018G22KT 10SM OVC010 01/M02 A2974 RMK AO2 CIG 008V012 SLP073 T00061022 FZRANO
KEWK 191256Z AUTO 32018KT 10SM OVC010 03/00 A2969 RMK AO2 WSHFT 1143 SLP056 T00330000
KEWK 191203Z AUTO 31020G23KT 10SM BKN010 OVC014 07/04 A2966 RMK AO2 WSHFT 1143 PRESRR
KEWK 191156Z AUTO 30016KT 10SM OVC012 09/06 A2965 RMK AO2 PK WND 21034/1058 WSHFT 1131 SLP037 T00890056 10167 20089 53028
KEWK 191145Z AUTO 29018G28KT 10SM FEW010 OVC014 14/11 A2963 RMK AO2 PK WND 21034/1058 WSHFT 1131 PRESRR
KEWK 191114Z AUTO 21025G33KT 10SM BKN016 BKN021 17/14 A2957 RMK AO2 PK WND 21034/1058
KEWK 191056Z AUTO 20029G38KT 10SM BKN014 OVC020 17/14 A2956 RMK AO2 PK WND 20039/1033 SLP003 T01670144
KEWK 190956Z AUTO 20029G36KT 10SM OVC014 17/14 A2955 RMK AO2 PK WND 20037/0939 SLP998 T01670144
KEWK 190856Z AUTO 20028G36KT 10SM OVC012 16/14 A2956 RMK AO2 PK WND 20037/0833 SLP001 T01610139 58009
KEWK 190756Z AUTO 20025G30KT 10SM OVC012 16/14 A2956 RMK AO2 PK WND 20030/0753 PRESFR SLP004 T01560139
KEWK 190735Z AUTO 19021G26KT 10SM OVC010 15/13 A2958 RMK AO2 PK WND 18028/0718
KEWK 190703Z AUTO 18018G25KT 10SM OVC006 14/13 A2959 RMK AO2 PK WND 18026/0700 CIG 005V009
KEWK 190656Z AUTO 18019G27KT 10SM OVC004 13/13 A2959 RMK AO2 PK WND 18032/0558 SLP017 T01330128
KEWK 190556Z AUTO 19026G33KT 10SM OVC004 12/12 A2959 RMK AO2 PK WND 18035/0533 SLP015 T01220117 10122 20094 58009
KEWK 190456Z AUTO 19020G29KT 10SM OVC004 11/10 A2962 RMK AO2 PK WND 17034/0403 SLP026 T01110100 401441006
KEWK 190424Z AUTO 18022G28KT 10SM OVC004 11/10 A2961 RMK AO2 PK WND 17034/0403
KEWK 190356Z AUTO 18025G34KT 10SM OVC006 11/10 A2960 RMK AO2 PK WND 18034/0349 SLP023 T01110100
KEWK 190334Z AUTO 18024G31KT 10SM OVC008 11/09 A2962 RMK AO2 PK WND 18032/0315
KEWK 190256Z AUTO 18023G31KT 10SM OVC012 11/09 A2961 RMK AO2 PK WND 19036/0242 SLP028 T01110089 58014
KEWK 190205Z AUTO 18022KT 10SM OVC014 11/08 A2963 RMK AO2 PK WND 18027/0204
KEWK 190116Z AUTO 17020G23KT 10SM BKN018 10/07 A2964 RMK AO2
KEWK 190056Z AUTO 16016KT 10SM FEW022 10/07 A2965 RMK AO2 SLP042 T01000067
KEWK 182256Z AUTO 18024G31KT 10SM BKN022 11/06 A2965 RMK AO2 PK WND 17035/2200 SLP041 T01110061
KEWK 182232Z AUTO 19024G29KT 10SM BKN024 11/06 A2965 RMK AO2 PK WND 17035/2200
KEWK 182208Z AUTO 18026G35KT 10SM SCT026 13/06 A2964 RMK AO2 PK WND 17035/2200
KEWK 182156Z AUTO 18026G34KT 10SM BKN026 13/06 A2964 RMK AO2 PK WND 19035/2103 PRESFR SLP036 T01330061
KEWK 182140Z AUTO 16023G29KT 10SM BKN026 13/06 A2965 RMK AO2 PK WND 19035/2103
KEWK 182056Z AUTO 18030G35KT 10SM BKN026 14/06 A2966 RMK AO2 PK WND 18037/2010 SLP044 T01440061 56057
KEWK 182021Z AUTO 18027G33KT 10SM SCT024 13/06 A2969 RMK AO2 PK WND 18037/2010
KEWK 181956Z AUTO 18031G37KT 10SM BKN022 12/05 A2970 RMK AO2 PK WND 18037/1954 PRESFR SLP059 T01220050
KEWK 181930Z AUTO 18027G33KT 10SM BKN022 12/05 A2975 RMK AO2 PK WND 18036/1909
KEWK 181856Z AUTO 18028G33KT 10SM SCT020 10/04 A2977 RMK AO2 PK WND 18033/1850 SLP083 T01000039
KEWK 181849Z AUTO 19028G32KT 10SM BKN020 09/04 A2978 RMK AO2 PK WND 19033/1818 PRESFR
KEWK 181756Z AUTO 18028G35KT 10SM CLR 09/03 A2984 RMK AO2 PK WND 18037/1718 SLP106 T00940028 10100 20039 58033
KEWK 181656Z AUTO 19026G34KT 10SM CLR 09/01 A2988 RMK AO2 PK WND 18036/1617 SLP123 T00890011
KEWK 181556Z AUTO 18028G33KT 10SM CLR 08/00 A2990 RMK AO2 PK WND 18034/1540 SLP127 T00780000